createdAt,value
2018-09-22T00:00:12.402Z,11.73
2018-09-22T00:01:12.362Z,11.91
2018-09-22T00:02:12.384Z,11.95
2018-09-22T00:03:12.367Z,11.99
2018-09-22T00:04:12.426Z,12.01
2018-09-22T00:05:12.309Z,12.02
2018-09-22T00:06:12.427Z,12.05
2018-09-22T00:07:12.401Z,12.03
2018-09-22T00:08:12.380Z,12.05
2018-09-22T00:09:12.382Z,12.05
2018-09-22T00:10:12.286Z,12.03
2018-09-22T00:11:12.337Z,12.03
2018-09-22T00:12:12.343Z,12.02
2018-09-22T00:13:12.393Z,12.02
2018-09-22T00:14:12.428Z,11.98
2018-09-22T00:15:12.398Z,11.95
2018-09-22T00:16:12.435Z,11.94
2018-09-22T00:17:12.352Z,11.92
2018-09-22T00:18:12.337Z,11.92
2018-09-22T00:19:12.304Z,11.89
2018-09-22T00:20:12.311Z,11.89
2018-09-22T00:21:12.382Z,11.84
2018-09-22T00:22:12.386Z,11.84
2018-09-22T00:23:12.372Z,11.86
2018-09-22T00:24:12.438Z,11.87
2018-09-22T00:25:12.389Z,11.87
2018-09-22T00:26:12.346Z,11.86
2018-09-22T00:27:12.366Z,11.83
2018-09-22T00:28:12.385Z,11.83
2018-09-22T00:29:12.387Z,11.80
2018-09-22T00:30:12.395Z,11.80
2018-09-22T00:31:12.376Z,11.80
2018-09-22T00:32:12.393Z,11.78
2018-09-22T00:33:12.388Z,11.76
2018-09-22T00:34:12.392Z,11.75
2018-09-22T00:35:12.390Z,11.75
2018-09-22T00:36:12.403Z,11.72
2018-09-22T00:37:12.322Z,11.69
2018-09-22T00:38:12.380Z,11.68
2018-09-22T00:39:12.351Z,11.64
2018-09-22T00:40:12.390Z,11.62
2018-09-22T00:41:12.419Z,11.60
2018-09-22T00:42:12.366Z,11.57
2018-09-22T00:43:12.367Z,11.57
2018-09-22T00:44:12.387Z,11.58
2018-09-22T00:45:12.392Z,11.60
2018-09-22T00:46:12.357Z,11.62
2018-09-22T00:47:12.332Z,11.65
2018-09-22T00:48:12.397Z,11.65
2018-09-22T00:49:12.365Z,11.65
2018-09-22T00:50:12.416Z,11.62
2018-09-22T00:51:12.437Z,11.61
2018-09-22T00:52:12.371Z,11.64
2018-09-22T00:53:12.439Z,11.62
2018-09-22T00:54:12.437Z,11.62
2018-09-22T00:55:12.431Z,11.60
2018-09-22T00:56:12.371Z,11.61
2018-09-22T00:57:12.391Z,11.67
2018-09-22T00:58:12.370Z,11.75
2018-09-22T00:59:12.404Z,11.83
2018-09-22T01:00:12.410Z,11.87
2018-09-22T01:01:12.406Z,11.92
2018-09-22T01:02:12.374Z,11.95
2018-09-22T01:03:12.305Z,11.97
2018-09-22T01:04:12.415Z,11.97
2018-09-22T01:05:12.337Z,11.98
2018-09-22T01:06:12.340Z,11.97
2018-09-22T01:07:12.413Z,11.95
2018-09-22T01:08:12.310Z,11.95
2018-09-22T01:09:12.339Z,11.97
2018-09-22T01:10:12.346Z,11.99
2018-09-22T01:11:12.417Z,11.99
2018-09-22T01:12:12.417Z,11.98
2018-09-22T01:13:12.346Z,11.99
2018-09-22T01:14:12.358Z,11.97
2018-09-22T01:15:12.420Z,11.97
2018-09-22T01:16:12.426Z,11.94
2018-09-22T01:17:12.350Z,11.91
2018-09-22T01:18:12.309Z,11.87
2018-09-22T01:19:12.421Z,11.84
2018-09-22T01:20:12.415Z,11.79
2018-09-22T01:21:12.337Z,11.75
2018-09-22T01:22:12.388Z,11.69
2018-09-22T01:23:12.324Z,11.65
2018-09-22T01:24:12.400Z,11.61
2018-09-22T01:25:12.344Z,11.62
2018-09-22T01:26:12.442Z,11.61
2018-09-22T01:27:12.328Z,11.64
2018-09-22T01:28:12.382Z,11.62
2018-09-22T01:29:12.449Z,11.68
2018-09-22T01:30:12.417Z,11.78
2018-09-22T01:31:12.432Z,11.80
2018-09-22T01:32:12.377Z,11.83
2018-09-22T01:33:12.360Z,11.82
2018-09-22T01:34:12.370Z,11.80
2018-09-22T01:35:12.435Z,11.76
2018-09-22T01:36:12.506Z,11.71
2018-09-22T01:37:12.361Z,11.68
2018-09-22T01:38:12.368Z,11.64
2018-09-22T01:39:12.445Z,11.64
2018-09-22T01:40:12.429Z,11.58
2018-09-22T01:41:12.349Z,11.56
2018-09-22T01:42:12.325Z,11.53
2018-09-22T01:43:12.350Z,11.47
2018-09-22T01:44:12.260Z,11.42
2018-09-22T01:45:12.405Z,11.40
2018-09-22T01:46:12.351Z,11.36
2018-09-22T01:47:12.353Z,11.35
2018-09-22T01:48:12.284Z,11.31
2018-09-22T01:49:12.302Z,11.36
2018-09-22T01:50:12.450Z,11.36
2018-09-22T01:51:12.396Z,11.38
2018-09-22T01:52:12.378Z,11.38
2018-09-22T01:53:12.473Z,11.38
2018-09-22T01:54:12.360Z,11.43
2018-09-22T01:55:12.445Z,11.53
2018-09-22T01:56:12.467Z,11.54
2018-09-22T01:57:12.476Z,11.58
2018-09-22T01:58:12.368Z,11.60
2018-09-22T01:59:12.413Z,11.64
2018-09-22T02:00:12.450Z,11.65
2018-09-22T02:01:12.459Z,11.65
2018-09-22T02:02:12.453Z,11.62
2018-09-22T02:03:12.455Z,11.60
2018-09-22T02:04:12.455Z,11.57
2018-09-22T02:05:12.456Z,11.56
2018-09-22T02:06:12.350Z,11.54
2018-09-22T02:07:12.398Z,11.54
2018-09-22T02:08:12.384Z,11.54
2018-09-22T02:09:12.443Z,11.51
2018-09-22T02:10:12.387Z,11.50
2018-09-22T02:11:12.373Z,11.47
2018-09-22T02:12:12.446Z,11.47
2018-09-22T02:13:12.450Z,11.46
2018-09-22T02:14:12.388Z,11.47
2018-09-22T02:15:12.457Z,11.45
2018-09-22T02:16:12.431Z,11.42
2018-09-22T02:17:12.416Z,11.40
2018-09-22T02:18:12.466Z,11.39
2018-09-22T02:19:12.473Z,11.36
2018-09-22T02:20:12.370Z,11.35
2018-09-22T02:21:12.439Z,11.32
2018-09-22T02:22:12.421Z,11.29
2018-09-22T02:23:12.387Z,11.27
2018-09-22T02:24:12.501Z,11.27
2018-09-22T02:25:12.467Z,11.22
2018-09-22T02:26:12.469Z,11.24
2018-09-22T02:27:12.483Z,11.22
2018-09-22T02:28:12.494Z,11.22
2018-09-22T02:29:12.481Z,11.20
2018-09-22T02:30:12.472Z,11.20
2018-09-22T02:31:12.400Z,11.18
2018-09-22T02:32:12.407Z,11.16
2018-09-22T02:33:12.473Z,11.14
2018-09-22T02:34:12.407Z,11.13
2018-09-22T02:35:12.466Z,11.10
2018-09-22T02:36:12.440Z,11.09
2018-09-22T02:37:12.480Z,11.06
2018-09-22T02:38:12.403Z,11.05
2018-09-22T02:39:12.409Z,11.05
2018-09-22T02:40:12.414Z,11.02
2018-09-22T02:41:12.409Z,11.00
2018-09-22T02:42:12.491Z,11.02
2018-09-22T02:43:12.479Z,11.05
2018-09-22T02:44:12.471Z,11.06
2018-09-22T02:45:12.414Z,11.09
2018-09-22T02:46:12.489Z,11.06
2018-09-22T02:47:12.486Z,11.06
2018-09-22T02:48:12.410Z,11.05
2018-09-22T02:49:12.471Z,11.02
2018-09-22T02:50:12.485Z,11.02
2018-09-22T02:51:12.488Z,11.03
2018-09-22T02:52:12.435Z,11.06
2018-09-22T02:53:16.701Z,11.05
2018-09-22T02:54:12.485Z,11.03
2018-09-22T02:55:12.503Z,11.02
2018-09-22T02:56:12.473Z,11.02
2018-09-22T02:57:12.467Z,11.00
2018-09-22T02:58:12.424Z,11.00
2018-09-22T02:59:12.418Z,11.00
2018-09-22T03:00:12.468Z,11.02
2018-09-22T03:01:12.462Z,11.00
2018-09-22T03:02:12.459Z,10.95
2018-09-22T03:03:12.459Z,10.91
2018-09-22T03:04:12.526Z,10.87
2018-09-22T03:05:12.418Z,10.84
2018-09-22T03:06:12.394Z,10.80
2018-09-22T03:07:12.520Z,10.74
2018-09-22T03:08:12.490Z,10.74
2018-09-22T03:09:12.434Z,10.71
2018-09-22T03:10:12.433Z,10.68
2018-09-22T03:11:12.498Z,10.64
2018-09-22T03:12:12.518Z,10.61
2018-09-22T03:13:12.511Z,10.58
2018-09-22T03:14:12.433Z,10.57
2018-09-22T03:15:12.554Z,10.52
2018-09-22T03:16:12.504Z,10.52
2018-09-22T03:17:12.447Z,10.49
2018-09-22T03:18:12.506Z,10.53
2018-09-22T03:19:12.519Z,10.64
2018-09-22T03:20:12.468Z,10.74
2018-09-22T03:21:12.386Z,10.79
2018-09-22T03:22:12.400Z,10.80
2018-09-22T03:23:12.452Z,10.81
2018-09-22T03:24:12.411Z,10.80
2018-09-22T03:25:12.403Z,10.77
2018-09-22T03:26:12.409Z,10.77
2018-09-22T03:27:12.384Z,10.75
2018-09-22T03:28:12.501Z,10.71
2018-09-22T03:29:12.403Z,10.71
2018-09-22T03:30:12.453Z,10.69
2018-09-22T03:31:12.486Z,10.68
2018-09-22T03:32:12.511Z,10.69
2018-09-22T03:33:12.449Z,10.67
2018-09-22T03:34:12.516Z,10.63
2018-09-22T03:35:12.513Z,10.58
2018-09-22T03:36:12.513Z,10.56
2018-09-22T03:37:12.481Z,10.53
2018-09-22T03:38:12.560Z,10.50
2018-09-22T03:39:12.417Z,10.47
2018-09-22T03:40:12.514Z,10.45
2018-09-22T03:41:12.511Z,10.43
2018-09-22T03:42:12.463Z,10.39
2018-09-22T03:43:12.516Z,10.34
2018-09-22T03:44:12.441Z,10.30
2018-09-22T03:45:12.441Z,10.25
2018-09-22T03:46:12.518Z,10.20
2018-09-22T03:47:12.447Z,10.11
2018-09-22T03:48:12.518Z,10.14
2018-09-22T03:49:12.517Z,10.16
2018-09-22T03:50:12.495Z,10.17
2018-09-22T03:51:12.412Z,10.17
2018-09-22T03:52:12.482Z,10.20
2018-09-22T03:53:12.479Z,10.23
2018-09-22T03:54:12.423Z,10.31
2018-09-22T03:55:12.484Z,10.36
2018-09-22T03:56:12.426Z,10.43
2018-09-22T03:57:12.395Z,10.45
2018-09-22T03:58:12.419Z,10.45
2018-09-22T03:59:12.483Z,10.42
2018-09-22T04:00:12.613Z,10.41
2018-09-22T04:01:12.493Z,10.38
2018-09-22T04:02:12.508Z,10.39
2018-09-22T04:03:12.595Z,10.38
2018-09-22T04:04:12.567Z,10.34
2018-09-22T04:05:12.503Z,10.31
2018-09-22T04:06:12.464Z,10.25
2018-09-22T04:07:12.507Z,10.21
2018-09-22T04:08:12.555Z,10.23
2018-09-22T04:09:12.480Z,10.30
2018-09-22T04:10:12.584Z,10.31
2018-09-22T04:11:12.463Z,10.32
2018-09-22T04:12:12.560Z,10.36
2018-09-22T04:13:12.557Z,10.35
2018-09-22T04:14:12.501Z,10.36
2018-09-22T04:15:12.514Z,10.38
2018-09-22T04:16:12.492Z,10.43
2018-09-22T04:17:12.508Z,10.50
2018-09-22T04:18:12.580Z,10.56
2018-09-22T04:19:12.541Z,10.64
2018-09-22T04:20:12.461Z,10.67
2018-09-22T04:21:12.500Z,10.69
2018-09-22T04:22:12.469Z,10.71
2018-09-22T04:23:12.445Z,10.72
2018-09-22T04:24:12.472Z,10.72
2018-09-22T04:25:12.450Z,10.68
2018-09-22T04:26:12.467Z,10.68
2018-09-22T04:27:12.499Z,10.74
2018-09-22T04:28:12.417Z,10.80
2018-09-22T04:29:12.409Z,10.83
2018-09-22T04:30:12.580Z,10.86
2018-09-22T04:31:12.565Z,10.90
2018-09-22T04:32:12.531Z,10.91
2018-09-22T04:33:12.660Z,10.94
2018-09-22T04:34:12.587Z,10.95
2018-09-22T04:35:12.553Z,10.98
2018-09-22T04:36:12.461Z,11.02
2018-09-22T04:37:12.559Z,11.03
2018-09-22T04:38:12.477Z,11.07
2018-09-22T04:39:12.528Z,11.09
2018-09-22T04:40:12.554Z,11.10
2018-09-22T04:41:12.595Z,11.11
2018-09-22T04:42:12.479Z,11.13
2018-09-22T04:43:12.538Z,11.13
2018-09-22T04:44:12.593Z,11.13
2018-09-22T04:45:12.540Z,11.16
2018-09-22T04:46:12.602Z,11.20
2018-09-22T04:47:12.568Z,11.24
2018-09-22T04:48:12.532Z,11.24
2018-09-22T04:49:12.604Z,11.24
2018-09-22T04:50:12.565Z,11.24
2018-09-22T04:51:12.564Z,11.24
2018-09-22T04:52:12.602Z,11.24
2018-09-22T04:53:12.530Z,11.24
2018-09-22T04:54:12.572Z,11.24
2018-09-22T04:55:12.601Z,11.24
2018-09-22T04:56:12.528Z,11.24
2018-09-22T04:57:12.536Z,11.24
2018-09-22T04:58:12.587Z,11.24
2018-09-22T04:59:12.632Z,11.24
2018-09-22T05:00:12.565Z,11.24
2018-09-22T05:01:12.479Z,11.24
2018-09-22T05:02:12.570Z,11.24
2018-09-22T05:03:12.493Z,11.24
2018-09-22T05:04:12.574Z,11.24
2018-09-22T05:05:12.497Z,11.24
2018-09-22T05:06:12.571Z,11.24
2018-09-22T05:07:12.586Z,11.24
2018-09-22T05:08:12.507Z,11.24
2018-09-22T05:09:12.539Z,11.24
2018-09-22T05:10:12.498Z,11.24
2018-09-22T05:11:12.598Z,11.24
2018-09-22T05:12:12.590Z,11.24
2018-09-22T05:13:12.580Z,11.24
2018-09-22T05:14:12.525Z,11.24
2018-09-22T05:15:12.554Z,11.24
2018-09-22T05:16:12.583Z,11.24
2018-09-22T05:17:12.666Z,11.24
2018-09-22T05:18:12.555Z,11.24
2018-09-22T05:19:12.557Z,11.24
2018-09-22T05:20:12.527Z,11.24
2018-09-22T05:21:12.593Z,11.24
2018-09-22T05:22:12.591Z,11.24
2018-09-22T05:23:12.601Z,11.24
2018-09-22T05:24:12.522Z,11.24
2018-09-22T05:25:12.593Z,11.24
2018-09-22T05:26:12.524Z,11.24
2018-09-22T05:27:12.555Z,11.24
2018-09-22T05:28:12.601Z,11.24
2018-09-22T05:29:12.495Z,11.24
2018-09-22T05:30:12.552Z,11.24
2018-09-22T05:31:12.577Z,11.24
2018-09-22T05:32:12.586Z,11.24
2018-09-22T05:33:12.488Z,11.24
2018-09-22T05:34:12.583Z,11.24
2018-09-22T05:35:12.461Z,11.24
2018-09-22T05:36:12.556Z,11.24
2018-09-22T05:37:12.576Z,11.24
2018-09-22T05:38:12.590Z,11.24
2018-09-22T05:39:12.581Z,11.24
2018-09-22T05:40:12.594Z,11.24
2018-09-22T05:41:12.506Z,11.24
2018-09-22T05:42:12.593Z,11.24
2018-09-22T05:43:12.525Z,11.56
2018-09-22T05:44:12.535Z,11.54
2018-09-22T05:45:12.522Z,11.53
2018-09-22T05:46:12.520Z,11.53
2018-09-22T05:47:12.509Z,11.56
2018-09-22T05:48:12.713Z,11.58
2018-09-22T05:49:12.535Z,11.58
2018-09-22T05:50:12.541Z,11.62
2018-09-22T05:51:12.542Z,11.64
2018-09-22T05:52:12.609Z,11.64
2018-09-22T05:53:12.545Z,11.69
2018-09-22T05:54:12.615Z,11.71
2018-09-22T05:55:12.612Z,11.73
2018-09-22T05:56:12.574Z,11.75
2018-09-22T05:57:12.629Z,11.82
2018-09-22T05:58:12.653Z,11.84
2018-09-22T05:59:12.549Z,11.89
2018-09-22T06:00:12.538Z,11.89
2018-09-22T06:01:12.613Z,11.91
2018-09-22T06:02:12.643Z,11.92
2018-09-22T06:03:12.589Z,11.95
2018-09-22T06:04:12.621Z,11.99
2018-09-22T06:05:12.628Z,12.01
2018-09-22T06:06:12.632Z,12.05
2018-09-22T06:07:12.565Z,12.08
2018-09-22T06:08:12.599Z,12.09
2018-09-22T06:09:12.540Z,12.12
2018-09-22T06:10:12.638Z,12.14
2018-09-22T06:11:12.523Z,12.16
2018-09-22T06:12:12.675Z,12.18
2018-09-22T06:13:12.678Z,12.21
2018-09-22T06:14:12.645Z,12.20
2018-09-22T06:15:12.585Z,12.22
2018-09-22T06:16:12.649Z,12.24
2018-09-22T06:17:12.582Z,12.24
2018-09-22T06:18:12.589Z,12.22
2018-09-22T06:19:12.535Z,12.24
2018-09-22T06:20:12.630Z,12.25
2018-09-22T06:21:12.563Z,12.25
2018-09-22T06:22:12.634Z,12.26
2018-09-22T06:23:12.672Z,12.26
2018-09-22T06:24:12.569Z,12.28
2018-09-22T06:25:12.751Z,12.28
2018-09-22T06:26:12.571Z,12.31
2018-09-22T06:27:12.572Z,12.31
2018-09-22T06:28:12.642Z,12.33
2018-09-22T06:29:12.569Z,12.33
2018-09-22T06:30:12.651Z,12.36
2018-09-22T06:31:12.606Z,12.33
2018-09-22T06:32:12.647Z,12.33
2018-09-22T06:33:12.619Z,12.35
2018-09-22T06:34:12.666Z,12.35
2018-09-22T06:35:12.598Z,12.35
2018-09-22T06:36:12.620Z,12.35
2018-09-22T06:37:12.671Z,12.36
2018-09-22T06:38:12.640Z,12.36
2018-09-22T06:39:12.579Z,12.37
2018-09-22T06:40:12.685Z,12.40
2018-09-22T06:41:12.685Z,12.43
2018-09-22T06:42:12.663Z,12.42
2018-09-22T06:43:12.560Z,12.43
2018-09-22T06:44:12.629Z,12.44
2018-09-22T06:45:12.669Z,12.46
2018-09-22T06:46:12.743Z,12.47
2018-09-22T06:47:12.656Z,12.47
2018-09-22T06:48:12.548Z,12.48
2018-09-22T06:49:12.615Z,12.48
2018-09-22T06:50:12.683Z,12.50
2018-09-22T06:51:12.655Z,12.51
2018-09-22T06:52:12.582Z,12.53
2018-09-22T06:53:12.658Z,12.55
2018-09-22T06:54:12.662Z,12.57
2018-09-22T06:55:12.654Z,12.57
2018-09-22T06:56:12.664Z,12.58
2018-09-22T06:57:12.692Z,12.61
2018-09-22T06:58:12.664Z,12.62
2018-09-22T06:59:12.588Z,12.65
2018-09-22T07:00:12.667Z,12.66
2018-09-22T07:01:12.623Z,12.68
2018-09-22T07:02:12.584Z,12.66
2018-09-22T07:03:12.619Z,12.68
2018-09-22T07:04:12.625Z,12.72
2018-09-22T07:05:12.666Z,12.75
2018-09-22T07:06:12.697Z,12.75
2018-09-22T07:07:12.584Z,12.76
2018-09-22T07:08:12.644Z,12.80
2018-09-22T07:09:12.627Z,12.80
2018-09-22T07:10:12.637Z,12.80
2018-09-22T07:11:12.682Z,12.82
2018-09-22T07:12:12.626Z,12.84
2018-09-22T07:13:12.641Z,12.87
2018-09-22T07:14:12.639Z,12.94
2018-09-22T07:15:12.649Z,12.95
2018-09-22T07:16:12.604Z,13.00
2018-09-22T07:17:12.613Z,13.05
2018-09-22T07:18:12.666Z,13.10
2018-09-22T07:19:12.666Z,13.14
2018-09-22T07:20:12.710Z,13.17
2018-09-22T07:21:12.697Z,13.17
2018-09-22T07:22:12.634Z,13.17
2018-09-22T07:23:12.580Z,13.20
2018-09-22T07:24:12.713Z,13.21
2018-09-22T07:25:12.583Z,13.23
2018-09-22T07:26:12.600Z,13.27
2018-09-22T07:27:12.614Z,13.29
2018-09-22T07:28:12.636Z,13.31
2018-09-22T07:29:12.626Z,13.34
2018-09-22T07:30:12.581Z,13.35
2018-09-22T07:31:12.624Z,13.36
2018-09-22T07:32:12.611Z,13.35
2018-09-22T07:33:12.683Z,13.40
2018-09-22T07:34:12.687Z,13.42
2018-09-22T07:35:12.693Z,13.39
2018-09-22T07:36:12.685Z,13.39
2018-09-22T07:37:12.696Z,13.43
2018-09-22T07:38:12.617Z,13.50
2018-09-22T07:39:12.618Z,13.57
2018-09-22T07:40:12.695Z,13.61
2018-09-22T07:41:12.617Z,13.56
2018-09-22T07:42:12.706Z,13.62
2018-09-22T07:43:12.612Z,13.68
2018-09-22T07:44:12.685Z,13.75
2018-09-22T07:45:12.610Z,13.76
2018-09-22T07:46:12.659Z,13.79
2018-09-22T07:47:12.619Z,13.79
2018-09-22T07:48:12.592Z,13.77
2018-09-22T07:49:12.612Z,13.80
2018-09-22T07:50:12.691Z,13.77
2018-09-22T07:51:12.626Z,13.80
2018-09-22T07:52:12.629Z,13.83
2018-09-22T07:53:12.629Z,13.84
2018-09-22T07:54:12.662Z,13.81
2018-09-22T07:55:12.633Z,13.80
2018-09-22T07:56:12.696Z,13.86
2018-09-22T07:57:12.746Z,13.91
2018-09-22T07:58:12.631Z,13.95
2018-09-22T07:59:12.527Z,14.04
2018-09-22T08:00:12.669Z,14.10
2018-09-22T08:01:12.697Z,14.11
2018-09-22T08:02:12.697Z,14.13
2018-09-22T08:03:12.608Z,14.18
2018-09-22T08:04:12.635Z,14.13
2018-09-22T08:05:12.592Z,14.17
2018-09-22T08:06:12.628Z,14.21
2018-09-22T08:07:12.663Z,14.28
2018-09-22T08:08:12.625Z,14.35
2018-09-22T08:09:12.692Z,14.40
2018-09-22T08:10:12.625Z,14.33
2018-09-22T08:11:12.706Z,14.33
2018-09-22T08:12:12.768Z,14.32
2018-09-22T08:13:12.707Z,14.27
2018-09-22T08:14:12.628Z,14.31
2018-09-22T08:15:12.709Z,14.36
2018-09-22T08:16:12.639Z,14.32
2018-09-22T08:17:12.736Z,14.22
2018-09-22T08:18:12.689Z,14.20
2018-09-22T08:19:12.743Z,14.24
2018-09-22T08:20:12.711Z,14.18
2018-09-22T08:21:12.715Z,14.17
2018-09-22T08:22:12.682Z,14.24
2018-09-22T08:23:12.745Z,14.22
2018-09-22T08:24:12.748Z,14.25
2018-09-22T08:25:12.797Z,14.36
2018-09-22T08:26:12.715Z,14.43
2018-09-22T08:27:12.757Z,14.51
2018-09-22T08:28:12.660Z,14.54
2018-09-22T08:29:12.639Z,14.60
2018-09-22T08:30:12.686Z,14.62
2018-09-22T08:31:12.749Z,14.61
2018-09-22T08:32:12.761Z,14.61
2018-09-22T08:33:12.755Z,14.60
2018-09-22T08:34:12.648Z,14.53
2018-09-22T08:35:12.630Z,14.53
2018-09-22T08:36:12.818Z,14.58
2018-09-22T08:37:12.724Z,14.62
2018-09-22T08:38:12.692Z,14.68
2018-09-22T08:39:12.741Z,14.60
2018-09-22T08:40:12.656Z,14.58
2018-09-22T08:41:12.716Z,14.61
2018-09-22T08:42:12.709Z,14.58
2018-09-22T08:43:12.652Z,14.68
2018-09-22T08:44:12.713Z,14.78
2018-09-22T08:45:12.727Z,14.78
2018-09-22T08:46:12.667Z,14.82
2018-09-22T08:47:12.615Z,14.86
2018-09-22T08:48:12.684Z,14.83
2018-09-22T08:49:12.667Z,14.83
2018-09-22T08:50:12.602Z,14.87
2018-09-22T08:51:12.805Z,14.94
2018-09-22T08:52:12.661Z,14.86
2018-09-22T08:53:12.696Z,14.84
2018-09-22T08:54:12.717Z,14.91
2018-09-22T08:55:12.719Z,14.98
2018-09-22T08:56:12.686Z,15.17
2018-09-22T08:57:12.663Z,15.32
2018-09-22T08:58:12.702Z,15.46
2018-09-22T08:59:12.766Z,15.62
2018-09-22T09:00:12.681Z,15.64
2018-09-22T09:01:12.746Z,15.73
2018-09-22T09:02:12.679Z,15.93
2018-09-22T09:03:12.700Z,16.09
2018-09-22T09:04:12.753Z,16.13
2018-09-22T09:05:12.844Z,16.14
2018-09-22T09:06:12.682Z,16.18
2018-09-22T09:07:12.750Z,16.05
2018-09-22T09:08:12.683Z,15.95
2018-09-22T09:09:12.754Z,15.99
2018-09-22T09:10:12.820Z,16.10
2018-09-22T09:11:12.707Z,16.16
2018-09-22T09:12:12.674Z,16.31
2018-09-22T09:13:12.757Z,16.36
2018-09-22T09:14:12.708Z,16.46
2018-09-22T09:15:12.745Z,16.63
2018-09-22T09:16:12.743Z,16.70
2018-09-22T09:17:12.702Z,16.66
2018-09-22T09:18:12.747Z,16.84
2018-09-22T09:19:12.749Z,16.80
2018-09-22T09:20:12.756Z,16.69
2018-09-22T09:21:12.631Z,16.63
2018-09-22T09:22:12.747Z,16.63
2018-09-22T09:23:12.656Z,16.68
2018-09-22T09:24:12.680Z,16.68
2018-09-22T09:25:12.653Z,16.63
2018-09-22T09:26:12.680Z,16.61
2018-09-22T09:27:12.746Z,16.62
2018-09-22T09:28:12.669Z,16.68
2018-09-22T09:29:12.686Z,16.63
2018-09-22T09:30:12.752Z,16.61
2018-09-22T09:31:12.781Z,16.65
2018-09-22T09:32:12.800Z,16.57
2018-09-22T09:33:12.687Z,16.48
2018-09-22T09:34:12.736Z,16.48
2018-09-22T09:35:12.740Z,16.41
2018-09-22T09:36:12.767Z,16.29
2018-09-22T09:37:12.767Z,16.27
2018-09-22T09:38:12.792Z,16.22
2018-09-22T09:39:12.786Z,16.22
2018-09-22T09:40:12.728Z,16.20
2018-09-22T09:41:12.803Z,16.22
2018-09-22T09:42:12.796Z,16.32
2018-09-22T09:43:12.831Z,16.39
2018-09-22T09:44:12.802Z,16.52
2018-09-22T09:45:12.793Z,16.43
2018-09-22T09:46:12.801Z,16.32
2018-09-22T09:47:12.717Z,16.28
2018-09-22T09:48:12.691Z,16.25
2018-09-22T09:49:12.777Z,16.20
2018-09-22T09:50:12.804Z,16.20
2018-09-22T09:51:12.776Z,16.27
2018-09-22T09:52:12.778Z,16.27
2018-09-22T09:53:12.703Z,16.18
2018-09-22T09:54:12.821Z,16.14
2018-09-22T09:55:12.801Z,16.06
2018-09-22T09:56:12.806Z,16.02
2018-09-22T09:57:12.686Z,16.00
2018-09-22T09:58:12.790Z,15.93
2018-09-22T09:59:12.784Z,15.90
2018-09-22T10:00:12.755Z,15.88
2018-09-22T10:01:12.823Z,15.90
2018-09-22T10:02:12.748Z,15.90
2018-09-22T10:03:12.790Z,15.97
2018-09-22T10:04:12.832Z,16.10
2018-09-22T10:05:12.757Z,16.24
2018-09-22T10:06:12.764Z,16.28
2018-09-22T10:07:12.775Z,16.28
2018-09-22T10:08:12.839Z,16.33
2018-09-22T10:09:12.754Z,16.41
2018-09-22T10:10:12.869Z,16.33
2018-09-22T10:11:12.834Z,16.25
2018-09-22T10:12:12.758Z,16.20
2018-09-22T10:13:12.765Z,16.18
2018-09-22T10:14:12.713Z,16.27
2018-09-22T10:15:12.796Z,16.31
2018-09-22T10:16:12.830Z,16.35
2018-09-22T10:17:12.840Z,16.35
2018-09-22T10:18:12.719Z,16.41
2018-09-22T10:19:12.823Z,16.32
2018-09-22T10:20:12.830Z,16.20
2018-09-22T10:21:12.734Z,16.17
2018-09-22T10:22:12.802Z,16.18
2018-09-22T10:23:12.804Z,16.16
2018-09-22T10:24:12.806Z,16.18
2018-09-22T10:25:12.736Z,16.22
2018-09-22T10:26:12.778Z,16.18
2018-09-22T10:27:12.740Z,16.13
2018-09-22T10:28:12.809Z,16.11
2018-09-22T10:29:12.745Z,16.11
2018-09-22T10:30:12.839Z,16.10
2018-09-22T10:31:12.781Z,16.09
2018-09-22T10:32:12.767Z,16.09
2018-09-22T10:33:12.807Z,16.06
2018-09-22T10:34:12.808Z,16.06
2018-09-22T10:35:12.847Z,16.11
2018-09-22T10:36:12.807Z,16.09
2018-09-22T10:37:12.786Z,16.03
2018-09-22T10:38:12.809Z,15.99
2018-09-22T10:39:12.842Z,15.99
2018-09-22T10:40:12.810Z,16.03
2018-09-22T10:41:12.786Z,16.03
2018-09-22T10:42:12.881Z,16.07
2018-09-22T10:43:12.749Z,16.16
2018-09-22T10:44:12.852Z,16.20
2018-09-22T10:45:12.816Z,16.22
2018-09-22T10:46:12.852Z,16.29
2018-09-22T10:47:12.750Z,16.33
2018-09-22T10:48:12.790Z,16.44
2018-09-22T10:49:12.825Z,16.50
2018-09-22T10:50:12.791Z,16.55
2018-09-22T10:51:12.848Z,16.55
2018-09-22T10:52:12.744Z,16.61
2018-09-22T10:53:12.851Z,16.66
2018-09-22T10:54:12.828Z,16.76
2018-09-22T10:55:12.824Z,16.91
2018-09-22T10:56:12.824Z,16.87
2018-09-22T10:57:12.869Z,16.92
2018-09-22T10:58:12.844Z,16.97
2018-09-22T10:59:12.830Z,16.95
2018-09-22T11:00:12.768Z,17.01
2018-09-22T11:01:12.788Z,17.06
2018-09-22T11:02:12.744Z,17.09
2018-09-22T11:03:12.771Z,17.13
2018-09-22T11:04:12.777Z,17.26
2018-09-22T11:05:12.827Z,17.36
2018-09-22T11:06:12.825Z,17.46
2018-09-22T11:07:12.829Z,17.60
2018-09-22T11:08:12.750Z,17.75
2018-09-22T11:09:12.827Z,17.83
2018-09-22T11:10:12.821Z,17.80
2018-09-22T11:11:12.761Z,17.60
2018-09-22T11:12:12.752Z,17.57
2018-09-22T11:13:12.744Z,17.49
2018-09-22T11:14:12.788Z,17.32
2018-09-22T11:15:12.755Z,17.14
2018-09-22T11:16:12.832Z,17.03
2018-09-22T11:17:12.859Z,17.01
2018-09-22T11:18:12.832Z,17.03
2018-09-22T11:19:12.762Z,17.02
2018-09-22T11:20:12.718Z,17.16
2018-09-22T11:21:12.848Z,17.26
2018-09-22T11:22:12.842Z,17.28
2018-09-22T11:23:12.815Z,17.31
2018-09-22T11:24:12.820Z,17.24
2018-09-22T11:25:12.822Z,17.16
2018-09-22T11:26:12.861Z,17.10
2018-09-22T11:27:12.886Z,17.06
2018-09-22T11:28:12.855Z,16.98
2018-09-22T11:29:12.852Z,16.92
2018-09-22T11:30:12.881Z,16.95
2018-09-22T11:31:12.781Z,16.98
2018-09-22T11:32:12.858Z,16.94
2018-09-22T11:33:12.854Z,16.98
2018-09-22T11:34:12.742Z,16.95
2018-09-22T11:35:12.850Z,16.91
2018-09-22T11:36:12.796Z,16.91
2018-09-22T11:37:12.854Z,16.94
2018-09-22T11:38:12.894Z,17.03
2018-09-22T11:39:12.791Z,17.10
2018-09-22T11:40:12.850Z,17.16
2018-09-22T11:41:12.779Z,17.24
2018-09-22T11:42:12.837Z,17.25
2018-09-22T11:43:12.830Z,17.18
2018-09-22T11:44:12.875Z,17.12
2018-09-22T11:45:12.859Z,17.12
2018-09-22T11:46:12.899Z,17.16
2018-09-22T11:47:12.867Z,17.22
2018-09-22T11:48:12.859Z,17.20
2018-09-22T11:49:12.882Z,17.24
2018-09-22T11:50:12.896Z,17.24
2018-09-22T11:51:12.780Z,17.29
2018-09-22T11:52:12.858Z,17.26
2018-09-22T11:53:12.784Z,17.24
2018-09-22T11:54:12.740Z,17.32
2018-09-22T11:55:12.895Z,17.35
2018-09-22T11:56:12.792Z,17.37
2018-09-22T11:57:12.758Z,17.39
2018-09-22T11:58:12.862Z,17.39
2018-09-22T11:59:12.786Z,17.46
2018-09-22T12:00:12.825Z,17.58
2018-09-22T12:01:12.885Z,17.62
2018-09-22T12:02:12.875Z,17.75
2018-09-22T12:03:12.817Z,17.77
2018-09-22T12:04:12.811Z,17.80
2018-09-22T12:05:12.880Z,17.80
2018-09-22T12:06:12.902Z,17.76
2018-09-22T12:07:12.885Z,17.77
2018-09-22T12:08:12.813Z,17.76
2018-09-22T12:09:12.824Z,17.71
2018-09-22T12:10:12.814Z,17.75
2018-09-22T12:11:12.811Z,17.75
2018-09-22T12:12:12.813Z,17.72
2018-09-22T12:13:12.888Z,17.61
2018-09-22T12:14:12.904Z,17.58
2018-09-22T12:15:12.895Z,17.60
2018-09-22T12:16:12.888Z,17.66
2018-09-22T12:17:12.892Z,17.72
2018-09-22T12:18:12.935Z,17.85
2018-09-22T12:19:12.832Z,17.85
2018-09-22T12:20:12.818Z,17.94
2018-09-22T12:21:12.797Z,18.06
2018-09-22T12:22:12.864Z,18.16
2018-09-22T12:23:12.759Z,18.10
2018-09-22T12:24:12.843Z,18.25
2018-09-22T12:25:12.814Z,18.47
2018-09-22T12:26:12.756Z,18.51
2018-09-22T12:27:12.865Z,18.57
2018-09-22T12:28:12.785Z,18.66
2018-09-22T12:29:12.843Z,18.75
2018-09-22T12:30:12.820Z,18.66
2018-09-22T12:31:12.873Z,18.43
2018-09-22T12:32:12.879Z,18.31
2018-09-22T12:33:12.872Z,18.06
2018-09-22T12:34:12.884Z,17.87
2018-09-22T12:35:12.874Z,17.84
2018-09-22T12:36:12.884Z,17.88
2018-09-22T12:37:12.888Z,17.87
2018-09-22T12:38:12.816Z,17.84
2018-09-22T12:39:12.824Z,17.83
2018-09-22T12:40:12.805Z,17.80
2018-09-22T12:41:12.905Z,17.79
2018-09-22T12:42:12.912Z,17.71
2018-09-22T12:43:12.823Z,17.69
2018-09-22T12:44:13.024Z,17.73
2018-09-22T12:45:12.905Z,17.76
2018-09-22T12:46:12.898Z,17.83
2018-09-22T12:47:12.913Z,17.77
2018-09-22T12:48:12.921Z,17.80
2018-09-22T12:49:12.800Z,17.77
2018-09-22T12:50:12.843Z,17.72
2018-09-22T12:51:12.838Z,17.71
2018-09-22T12:52:12.844Z,17.71